sensor_id;sensor_type;location;lat;lon;timestamp;P1;durP1;ratioP1;P2;durP2;ratioP2
76115;SDS011;64847;45.778;12.802;2023-08-01T00:00:48;2.05;;;1.95;;
76115;SDS011;64847;45.778;12.802;2023-08-01T00:03:13;2.53;;;1.77;;
76115;SDS011;64847;45.778;12.802;2023-08-01T00:05:39;1.80;;;1.80;;
76115;SDS011;64847;45.778;12.802;2023-08-01T00:08:09;2.08;;;1.98;;
76115;SDS011;64847;45.778;12.802;2023-08-01T00:10:38;1.90;;;1.80;;
76115;SDS011;64847;45.778;12.802;2023-08-01T00:13:03;2.10;;;2.00;;
76115;SDS011;64847;45.778;12.802;2023-08-01T00:15:29;2.35;;;2.22;;
76115;SDS011;64847;45.778;12.802;2023-08-01T00:17:54;2.90;;;2.13;;
76115;SDS011;64847;45.778;12.802;2023-08-01T00:20:20;2.03;;;1.92;;
76115;SDS011;64847;45.778;12.802;2023-08-01T00:22:45;1.95;;;1.85;;
76115;SDS011;64847;45.778;12.802;2023-08-01T00:25:10;1.80;;;1.67;;
76115;SDS011;64847;45.778;12.802;2023-08-01T00:27:36;2.10;;;2.00;;
76115;SDS011;64847;45.778;12.802;2023-08-01T00:30:01;2.08;;;1.98;;
76115;SDS011;64847;45.778;12.802;2023-08-01T00:32:27;2.28;;;2.17;;
76115;SDS011;64847;45.778;12.802;2023-08-01T00:34:52;2.13;;;2.03;;
76115;SDS011;64847;45.778;12.802;2023-08-01T00:37:17;2.20;;;2.10;;
76115;SDS011;64847;45.778;12.802;2023-08-01T00:39:43;2.10;;;2.00;;
76115;SDS011;64847;45.778;12.802;2023-08-01T00:42:08;2.63;;;2.50;;
76115;SDS011;64847;45.778;12.802;2023-08-01T00:44:34;2.38;;;2.28;;
76115;SDS011;64847;45.778;12.802;2023-08-01T00:46:59;2.28;;;2.15;;
76115;SDS011;64847;45.778;12.802;2023-08-01T00:49:25;2.28;;;2.17;;
76115;SDS011;64847;45.778;12.802;2023-08-01T00:51:50;2.00;;;1.90;;
76115;SDS011;64847;45.778;12.802;2023-08-01T00:54:15;2.10;;;2.00;;
76115;SDS011;64847;45.778;12.802;2023-08-01T00:56:41;2.05;;;1.95;;
76115;SDS011;64847;45.778;12.802;2023-08-01T00:59:07;2.40;;;2.30;;
76115;SDS011;64847;45.778;12.802;2023-08-01T01:01:32;2.42;;;2.25;;
76115;SDS011;64847;45.778;12.802;2023-08-01T01:03:58;2.33;;;2.22;;
76115;SDS011;64847;45.778;12.802;2023-08-01T01:08:59;3.17;;;2.10;;
76115;SDS011;64847;45.778;12.802;2023-08-01T01:11:25;3.55;;;2.38;;
76115;SDS011;64847;45.778;12.802;2023-08-01T01:13:50;2.40;;;2.30;;
76115;SDS011;64847;45.778;12.802;2023-08-01T01:16:19;2.95;;;2.75;;
76115;SDS011;64847;45.778;12.802;2023-08-01T01:18:45;2.97;;;2.78;;
76115;SDS011;64847;45.778;12.802;2023-08-01T01:21:10;2.97;;;2.78;;
76115;SDS011;64847;45.778;12.802;2023-08-01T01:23:36;2.95;;;2.78;;
76115;SDS011;64847;45.778;12.802;2023-08-01T01:26:02;3.33;;;2.60;;
76115;SDS011;64847;45.778;12.802;2023-08-01T01:28:29;2.75;;;2.55;;
76115;SDS011;64847;45.778;12.802;2023-08-01T01:30:55;2.47;;;2.28;;
76115;SDS011;64847;45.778;12.802;2023-08-01T01:33:21;2.85;;;2.65;;
76115;SDS011;64847;45.778;12.802;2023-08-01T01:35:46;3.70;;;2.45;;
76115;SDS011;64847;45.778;12.802;2023-08-01T01:38:12;2.63;;;2.45;;
76115;SDS011;64847;45.778;12.802;2023-08-01T01:40:38;2.60;;;2.40;;
76115;SDS011;64847;45.778;12.802;2023-08-01T01:43:03;2.42;;;2.25;;
76115;SDS011;64847;45.778;12.802;2023-08-01T01:45:29;2.72;;;2.53;;
76115;SDS011;64847;45.778;12.802;2023-08-01T01:47:54;2.83;;;2.70;;
76115;SDS011;64847;45.778;12.802;2023-08-01T01:50:19;3.85;;;2.60;;
76115;SDS011;64847;45.778;12.802;2023-08-01T01:52:45;2.30;;;2.20;;
76115;SDS011;64847;45.778;12.802;2023-08-01T01:55:11;2.90;;;2.70;;
76115;SDS011;64847;45.778;12.802;2023-08-01T01:57:36;2.58;;;2.38;;
76115;SDS011;64847;45.778;12.802;2023-08-01T02:00:02;4.18;;;2.50;;
76115;SDS011;64847;45.778;12.802;2023-08-01T02:02:29;2.70;;;2.50;;
76115;SDS011;64847;45.778;12.802;2023-08-01T02:04:54;2.45;;;2.35;;
76115;SDS011;64847;45.778;12.802;2023-08-01T02:07:19;2.60;;;2.40;;
76115;SDS011;64847;45.778;12.802;2023-08-01T02:09:45;3.20;;;2.70;;
76115;SDS011;64847;45.778;12.802;2023-08-01T02:12:11;2.60;;;2.50;;
76115;SDS011;64847;45.778;12.802;2023-08-01T02:14:38;3.15;;;2.80;;
76115;SDS011;64847;45.778;12.802;2023-08-01T02:17:04;2.80;;;2.58;;
76115;SDS011;64847;45.778;12.802;2023-08-01T02:19:30;2.65;;;2.45;;
76115;SDS011;64847;45.778;12.802;2023-08-01T02:21:55;3.15;;;2.85;;
76115;SDS011;64847;45.778;12.802;2023-08-01T02:24:21;2.65;;;2.45;;
76115;SDS011;64847;45.778;12.802;2023-08-01T02:26:46;2.83;;;2.63;;
76115;SDS011;64847;45.778;12.802;2023-08-01T02:29:12;2.67;;;2.50;;
76115;SDS011;64847;45.778;12.802;2023-08-01T02:31:38;2.75;;;2.60;;
76115;SDS011;64847;45.778;12.802;2023-08-01T02:34:03;2.92;;;2.72;;
76115;SDS011;64847;45.778;12.802;2023-08-01T02:36:29;2.92;;;2.72;;
76115;SDS011;64847;45.778;12.802;2023-08-01T02:38:54;3.15;;;2.40;;
76115;SDS011;64847;45.778;12.802;2023-08-01T02:41:19;2.75;;;2.55;;
76115;SDS011;64847;45.778;12.802;2023-08-01T02:43:45;2.88;;;2.63;;
76115;SDS011;64847;45.778;12.802;2023-08-01T02:46:10;3.10;;;2.72;;
76115;SDS011;64847;45.778;12.802;2023-08-01T02:48:35;4.40;;;3.00;;
76115;SDS011;64847;45.778;12.802;2023-08-01T02:51:02;3.00;;;2.70;;
76115;SDS011;64847;45.778;12.802;2023-08-01T02:53:27;2.75;;;2.40;;
76115;SDS011;64847;45.778;12.802;2023-08-01T02:55:53;3.20;;;2.90;;
76115;SDS011;64847;45.778;12.802;2023-08-01T02:58:18;3.28;;;2.70;;
76115;SDS011;64847;45.778;12.802;2023-08-01T03:00:43;3.28;;;2.97;;
76115;SDS011;64847;45.778;12.802;2023-08-01T03:03:09;3.35;;;2.67;;
76115;SDS011;64847;45.778;12.802;2023-08-01T03:05:36;3.28;;;3.03;;
76115;SDS011;64847;45.778;12.802;2023-08-01T03:08:02;2.92;;;2.72;;
76115;SDS011;64847;45.778;12.802;2023-08-01T03:10:28;2.95;;;2.70;;
76115;SDS011;64847;45.778;12.802;2023-08-01T03:12:53;3.05;;;2.85;;
76115;SDS011;64847;45.778;12.802;2023-08-01T03:15:19;5.28;;;3.40;;
76115;SDS011;64847;45.778;12.802;2023-08-01T03:17:44;3.72;;;2.50;;
76115;SDS011;64847;45.778;12.802;2023-08-01T03:20:09;3.47;;;3.17;;
76115;SDS011;64847;45.778;12.802;2023-08-01T03:22:37;3.20;;;3.00;;
76115;SDS011;64847;45.778;12.802;2023-08-01T03:25:05;3.35;;;2.58;;
76115;SDS011;64847;45.778;12.802;2023-08-01T03:27:34;3.10;;;2.90;;
76115;SDS011;64847;45.778;12.802;2023-08-01T03:30:00;3.55;;;2.80;;
76115;SDS011;64847;45.778;12.802;2023-08-01T03:32:26;4.07;;;3.00;;
76115;SDS011;64847;45.778;12.802;2023-08-01T03:34:51;2.97;;;2.83;;
76115;SDS011;64847;45.778;12.802;2023-08-01T03:37:17;3.03;;;2.83;;
76115;SDS011;64847;45.778;12.802;2023-08-01T03:39:43;3.13;;;2.92;;
76115;SDS011;64847;45.778;12.802;2023-08-01T03:42:08;3.20;;;2.80;;
76115;SDS011;64847;45.778;12.802;2023-08-01T03:44:33;3.05;;;2.67;;
76115;SDS011;64847;45.778;12.802;2023-08-01T03:46:59;3.13;;;2.85;;
76115;SDS011;64847;45.778;12.802;2023-08-01T03:49:24;3.17;;;2.97;;
76115;SDS011;64847;45.778;12.802;2023-08-01T03:51:50;3.33;;;3.03;;
76115;SDS011;64847;45.778;12.802;2023-08-01T03:54:15;3.13;;;2.92;;
76115;SDS011;64847;45.778;12.802;2023-08-01T03:56:40;3.72;;;3.30;;
76115;SDS011;64847;45.778;12.802;2023-08-01T03:59:08;3.05;;;2.70;;
76115;SDS011;64847;45.778;12.802;2023-08-01T04:01:35;3.40;;;3.10;;
76115;SDS011;64847;45.778;12.802;2023-08-01T04:04:00;4.22;;;3.05;;
76115;SDS011;64847;45.778;12.802;2023-08-01T04:06:25;3.30;;;3.10;;
76115;SDS011;64847;45.778;12.802;2023-08-01T04:08:51;2.85;;;2.60;;
76115;SDS011;64847;45.778;12.802;2023-08-01T04:11:17;3.53;;;3.33;;
76115;SDS011;64847;45.778;12.802;2023-08-01T04:13:42;4.30;;;3.05;;
76115;SDS011;64847;45.778;12.802;2023-08-01T04:16:08;3.28;;;3.03;;
76115;SDS011;64847;45.778;12.802;2023-08-01T04:18:33;5.07;;;3.25;;
76115;SDS011;64847;45.778;12.802;2023-08-01T04:20:59;3.50;;;3.20;;
76115;SDS011;64847;45.778;12.802;2023-08-01T04:23:24;3.20;;;2.88;;
76115;SDS011;64847;45.778;12.802;2023-08-01T04:25:49;2.67;;;2.58;;
76115;SDS011;64847;45.778;12.802;2023-08-01T04:28:15;3.08;;;2.78;;
76115;SDS011;64847;45.778;12.802;2023-08-01T04:30:40;3.03;;;2.80;;
76115;SDS011;64847;45.778;12.802;2023-08-01T04:33:06;3.13;;;2.92;;
76115;SDS011;64847;45.778;12.802;2023-08-01T04:35:31;3.15;;;2.95;;
76115;SDS011;64847;45.778;12.802;2023-08-01T04:37:56;3.22;;;2.92;;
76115;SDS011;64847;45.778;12.802;2023-08-01T04:40:22;3.53;;;3.22;;
76115;SDS011;64847;45.778;12.802;2023-08-01T04:42:47;3.53;;;3.22;;
76115;SDS011;64847;45.778;12.802;2023-08-01T04:45:13;4.57;;;3.60;;
76115;SDS011;64847;45.778;12.802;2023-08-01T04:47:39;4.45;;;2.75;;
76115;SDS011;64847;45.778;12.802;2023-08-01T04:50:04;3.45;;;3.10;;
76115;SDS011;64847;45.778;12.802;2023-08-01T04:52:30;3.30;;;2.45;;
76115;SDS011;64847;45.778;12.802;2023-08-01T04:54:56;3.33;;;2.60;;
76115;SDS011;64847;45.778;12.802;2023-08-01T04:57:21;2.53;;;2.42;;
76115;SDS011;64847;45.778;12.802;2023-08-01T04:59:46;3.30;;;2.40;;
76115;SDS011;64847;45.778;12.802;2023-08-01T05:02:12;2.60;;;2.50;;
76115;SDS011;64847;45.778;12.802;2023-08-01T05:04:37;2.90;;;2.60;;
76115;SDS011;64847;45.778;12.802;2023-08-01T05:07:03;2.70;;;2.50;;
76115;SDS011;64847;45.778;12.802;2023-08-01T05:09:31;3.00;;;2.72;;
76115;SDS011;64847;45.778;12.802;2023-08-01T05:11:57;3.20;;;2.90;;
76115;SDS011;64847;45.778;12.802;2023-08-01T05:14:22;2.58;;;2.42;;
76115;SDS011;64847;45.778;12.802;2023-08-01T05:16:47;2.60;;;2.40;;
76115;SDS011;64847;45.778;12.802;2023-08-01T05:19:13;2.53;;;2.38;;
76115;SDS011;64847;45.778;12.802;2023-08-01T05:21:38;3.13;;;2.92;;
76115;SDS011;64847;45.778;12.802;2023-08-01T05:24:04;2.50;;;2.40;;
76115;SDS011;64847;45.778;12.802;2023-08-01T05:26:29;4.32;;;2.70;;
76115;SDS011;64847;45.778;12.802;2023-08-01T05:28:55;2.35;;;2.25;;
76115;SDS011;64847;45.778;12.802;2023-08-01T05:31:20;2.83;;;2.47;;
76115;SDS011;64847;45.778;12.802;2023-08-01T05:33:45;3.17;;;2.75;;
76115;SDS011;64847;45.778;12.802;2023-08-01T05:36:11;2.90;;;2.78;;
76115;SDS011;64847;45.778;12.802;2023-08-01T05:38:36;3.03;;;2.80;;
76115;SDS011;64847;45.778;12.802;2023-08-01T05:41:03;2.58;;;2.40;;
76115;SDS011;64847;45.778;12.802;2023-08-01T05:43:28;2.72;;;2.50;;
76115;SDS011;64847;45.778;12.802;2023-08-01T05:45:54;2.95;;;2.75;;
76115;SDS011;64847;45.778;12.802;2023-08-01T05:48:20;2.90;;;2.35;;
76115;SDS011;64847;45.778;12.802;2023-08-01T05:50:46;2.50;;;2.40;;
76115;SDS011;64847;45.778;12.802;2023-08-01T05:53:11;2.15;;;2.08;;
76115;SDS011;64847;45.778;12.802;2023-08-01T05:55:36;2.92;;;2.72;;
76115;SDS011;64847;45.778;12.802;2023-08-01T05:58:02;2.42;;;2.33;;
76115;SDS011;64847;45.778;12.802;2023-08-01T06:00:27;3.10;;;2.78;;
76115;SDS011;64847;45.778;12.802;2023-08-01T06:02:53;2.63;;;2.42;;
76115;SDS011;64847;45.778;12.802;2023-08-01T06:05:18;2.63;;;2.50;;
76115;SDS011;64847;45.778;12.802;2023-08-01T06:07:44;2.70;;;2.50;;
76115;SDS011;64847;45.778;12.802;2023-08-01T06:10:09;2.65;;;2.53;;
76115;SDS011;64847;45.778;12.802;2023-08-01T06:12:37;2.53;;;2.40;;
76115;SDS011;64847;45.778;12.802;2023-08-01T06:15:03;3.45;;;2.50;;
76115;SDS011;64847;45.778;12.802;2023-08-01T06:17:29;2.78;;;2.55;;
76115;SDS011;64847;45.778;12.802;2023-08-01T06:19:55;2.58;;;2.38;;
76115;SDS011;64847;45.778;12.802;2023-08-01T06:22:20;2.72;;;2.50;;
76115;SDS011;64847;45.778;12.802;2023-08-01T06:24:46;2.50;;;2.40;;
76115;SDS011;64847;45.778;12.802;2023-08-01T06:27:11;4.18;;;2.60;;
76115;SDS011;64847;45.778;12.802;2023-08-01T06:29:37;2.72;;;2.53;;
76115;SDS011;64847;45.778;12.802;2023-08-01T06:32:03;2.40;;;2.25;;
76115;SDS011;64847;45.778;12.802;2023-08-01T06:34:28;2.20;;;2.10;;
76115;SDS011;64847;45.778;12.802;2023-08-01T06:36:54;2.45;;;2.25;;
76115;SDS011;64847;45.778;12.802;2023-08-01T06:39:19;3.00;;;2.40;;
76115;SDS011;64847;45.778;12.802;2023-08-01T06:41:45;2.83;;;2.55;;
76115;SDS011;64847;45.778;12.802;2023-08-01T06:44:10;2.47;;;2.28;;
76115;SDS011;64847;45.778;12.802;2023-08-01T06:46:35;1.95;;;1.85;;
76115;SDS011;64847;45.778;12.802;2023-08-01T06:49:01;2.53;;;2.33;;
76115;SDS011;64847;45.778;12.802;2023-08-01T06:51:26;2.22;;;2.10;;
76115;SDS011;64847;45.778;12.802;2023-08-01T06:53:52;2.00;;;1.90;;
76115;SDS011;64847;45.778;12.802;2023-08-01T06:56:17;2.80;;;2.30;;
76115;SDS011;64847;45.778;12.802;2023-08-01T06:58:43;2.90;;;2.05;;
76115;SDS011;64847;45.778;12.802;2023-08-01T07:01:08;2.13;;;1.98;;
76115;SDS011;64847;45.778;12.802;2023-08-01T07:03:34;2.22;;;2.10;;
76115;SDS011;64847;45.778;12.802;2023-08-01T07:05:59;2.22;;;2.13;;
76115;SDS011;64847;45.778;12.802;2023-08-01T07:08:25;1.90;;;1.80;;
76115;SDS011;64847;45.778;12.802;2023-08-01T07:10:50;2.25;;;2.15;;
76115;SDS011;64847;45.778;12.802;2023-08-01T07:13:16;2.17;;;1.92;;
76115;SDS011;64847;45.778;12.802;2023-08-01T07:15:41;2.53;;;2.33;;
76115;SDS011;64847;45.778;12.802;2023-08-01T07:18:07;2.22;;;2.00;;
76115;SDS011;64847;45.778;12.802;2023-08-01T07:20:32;2.20;;;2.08;;
76115;SDS011;64847;45.778;12.802;2023-08-01T07:22:58;2.10;;;2.00;;
76115;SDS011;64847;45.778;12.802;2023-08-01T07:25:23;2.25;;;2.13;;
76115;SDS011;64847;45.778;12.802;2023-08-01T07:27:50;2.10;;;2.00;;
76115;SDS011;64847;45.778;12.802;2023-08-01T07:30:15;2.15;;;2.05;;
76115;SDS011;64847;45.778;12.802;2023-08-01T07:32:41;2.10;;;2.00;;
76115;SDS011;64847;45.778;12.802;2023-08-01T07:35:08;2.10;;;1.90;;
76115;SDS011;64847;45.778;12.802;2023-08-01T07:37:33;2.20;;;2.10;;
76115;SDS011;64847;45.778;12.802;2023-08-01T07:39:59;2.58;;;2.47;;
76115;SDS011;64847;45.778;12.802;2023-08-01T07:42:24;2.20;;;2.10;;
76115;SDS011;64847;45.778;12.802;2023-08-01T07:44:50;3.53;;;3.28;;
76115;SDS011;64847;45.778;12.802;2023-08-01T07:47:15;5.32;;;4.82;;
76115;SDS011;64847;45.778;12.802;2023-08-01T07:49:41;4.78;;;4.05;;
76115;SDS011;64847;45.778;12.802;2023-08-01T07:52:06;3.50;;;3.30;;
76115;SDS011;64847;45.778;12.802;2023-08-01T07:54:32;4.72;;;4.32;;
76115;SDS011;64847;45.778;12.802;2023-08-01T07:56:57;5.43;;;4.93;;
76115;SDS011;64847;45.778;12.802;2023-08-01T07:59:22;5.65;;;4.95;;
76115;SDS011;64847;45.778;12.802;2023-08-01T08:01:48;4.93;;;4.43;;
76115;SDS011;64847;45.778;12.802;2023-08-01T08:04:13;4.88;;;4.47;;
76115;SDS011;64847;45.778;12.802;2023-08-01T08:06:39;4.60;;;4.20;;
76115;SDS011;64847;45.778;12.802;2023-08-01T08:09:05;4.65;;;4.00;;
76115;SDS011;64847;45.778;12.802;2023-08-01T08:11:30;3.53;;;3.22;;
76115;SDS011;64847;45.778;12.802;2023-08-01T08:13:56;3.95;;;3.10;;
76115;SDS011;64847;45.778;12.802;2023-08-01T08:16:21;3.22;;;3.03;;
76115;SDS011;64847;45.778;12.802;2023-08-01T08:18:47;3.40;;;2.97;;
76115;SDS011;64847;45.778;12.802;2023-08-01T08:21:12;2.92;;;2.72;;
76115;SDS011;64847;45.778;12.802;2023-08-01T08:23:37;3.17;;;2.80;;
76115;SDS011;64847;45.778;12.802;2023-08-01T08:26:03;3.10;;;2.88;;
76115;SDS011;64847;45.778;12.802;2023-08-01T08:28:30;2.40;;;2.30;;
76115;SDS011;64847;45.778;12.802;2023-08-01T08:30:57;2.72;;;2.60;;
76115;SDS011;64847;45.778;12.802;2023-08-01T08:33:23;3.58;;;2.63;;
76115;SDS011;64847;45.778;12.802;2023-08-01T08:35:49;2.40;;;2.30;;
76115;SDS011;64847;45.778;12.802;2023-08-01T08:38:14;3.00;;;2.70;;
76115;SDS011;64847;45.778;12.802;2023-08-01T08:40:41;3.22;;;3.00;;
76115;SDS011;64847;45.778;12.802;2023-08-01T08:43:10;3.03;;;2.83;;
76115;SDS011;64847;45.778;12.802;2023-08-01T08:45:36;2.70;;;2.60;;
76115;SDS011;64847;45.778;12.802;2023-08-01T08:48:08;2.80;;;2.60;;
76115;SDS011;64847;45.778;12.802;2023-08-01T08:50:35;2.95;;;2.75;;
76115;SDS011;64847;45.778;12.802;2023-08-01T08:53:00;2.83;;;2.63;;
76115;SDS011;64847;45.778;12.802;2023-08-01T08:55:27;2.38;;;2.25;;
76115;SDS011;64847;45.778;12.802;2023-08-01T08:57:53;2.50;;;2.40;;
76115;SDS011;64847;45.778;12.802;2023-08-01T09:00:19;2.20;;;2.10;;
76115;SDS011;64847;45.778;12.802;2023-08-01T09:02:45;2.45;;;2.35;;
76115;SDS011;64847;45.778;12.802;2023-08-01T09:05:10;2.33;;;2.22;;
76115;SDS011;64847;45.778;12.802;2023-08-01T09:07:37;2.20;;;2.10;;
76115;SDS011;64847;45.778;12.802;2023-08-01T09:10:05;2.65;;;2.45;;
76115;SDS011;64847;45.778;12.802;2023-08-01T09:12:33;3.92;;;2.50;;
76115;SDS011;64847;45.778;12.802;2023-08-01T09:15:00;2.40;;;2.30;;
76115;SDS011;64847;45.778;12.802;2023-08-01T09:17:25;2.08;;;1.92;;
76115;SDS011;64847;45.778;12.802;2023-08-01T09:19:55;2.60;;;2.40;;
76115;SDS011;64847;45.778;12.802;2023-08-01T09:22:28;2.47;;;2.38;;
76115;SDS011;64847;45.778;12.802;2023-08-01T09:24:54;2.38;;;2.28;;
76115;SDS011;64847;45.778;12.802;2023-08-01T09:27:20;2.63;;;2.42;;
76115;SDS011;64847;45.778;12.802;2023-08-01T09:29:47;2.70;;;2.50;;
76115;SDS011;64847;45.778;12.802;2023-08-01T09:32:13;2.25;;;2.13;;
76115;SDS011;64847;45.778;12.802;2023-08-01T09:34:41;2.30;;;2.17;;
76115;SDS011;64847;45.778;12.802;2023-08-01T09:37:08;2.05;;;1.95;;
76115;SDS011;64847;45.778;12.802;2023-08-01T09:39:33;1.95;;;1.92;;
76115;SDS011;64847;45.778;12.802;2023-08-01T09:41:59;1.83;;;1.73;;
76115;SDS011;64847;45.778;12.802;2023-08-01T09:44:26;1.92;;;1.83;;
76115;SDS011;64847;45.778;12.802;2023-08-01T09:46:59;1.70;;;1.70;;
76115;SDS011;64847;45.778;12.802;2023-08-01T09:49:26;1.80;;;1.70;;
76115;SDS011;64847;45.778;12.802;2023-08-01T09:51:52;1.98;;;1.88;;
76115;SDS011;64847;45.778;12.802;2023-08-01T09:54:17;1.60;;;1.60;;
76115;SDS011;64847;45.778;12.802;2023-08-01T09:56:47;1.80;;;1.70;;
76115;SDS011;64847;45.778;12.802;2023-08-01T09:59:16;1.60;;;1.60;;
76115;SDS011;64847;45.778;12.802;2023-08-01T10:01:44;2.03;;;1.92;;
76115;SDS011;64847;45.778;12.802;2023-08-01T10:04:12;1.90;;;1.80;;
76115;SDS011;64847;45.778;12.802;2023-08-01T10:06:38;1.80;;;1.70;;
76115;SDS011;64847;45.778;12.802;2023-08-01T10:09:09;1.83;;;1.83;;
76115;SDS011;64847;45.778;12.802;2023-08-01T10:11:35;2.38;;;1.75;;
76115;SDS011;64847;45.778;12.802;2023-08-01T10:14:02;1.90;;;1.80;;
76115;SDS011;64847;45.778;12.802;2023-08-01T10:16:28;1.80;;;1.70;;
76115;SDS011;64847;45.778;12.802;2023-08-01T10:18:53;1.80;;;1.70;;
76115;SDS011;64847;45.778;12.802;2023-08-01T10:21:19;2.00;;;1.90;;
76115;SDS011;64847;45.778;12.802;2023-08-01T10:23:46;1.70;;;1.60;;
76115;SDS011;64847;45.778;12.802;2023-08-01T10:26:11;1.70;;;1.70;;
76115;SDS011;64847;45.778;12.802;2023-08-01T10:28:38;1.77;;;1.67;;
76115;SDS011;64847;45.778;12.802;2023-08-01T10:31:14;1.73;;;1.70;;
76115;SDS011;64847;45.778;12.802;2023-08-01T10:33:41;1.83;;;1.73;;
76115;SDS011;64847;45.778;12.802;2023-08-01T10:36:22;1.65;;;1.58;;
76115;SDS011;64847;45.778;12.802;2023-08-01T10:38:49;1.90;;;1.80;;
76115;SDS011;64847;45.778;12.802;2023-08-01T10:41:18;1.90;;;1.80;;
76115;SDS011;64847;45.778;12.802;2023-08-01T10:43:45;1.67;;;1.67;;
76115;SDS011;64847;45.778;12.802;2023-08-01T10:46:10;1.90;;;1.80;;
76115;SDS011;64847;45.778;12.802;2023-08-01T10:48:47;1.60;;;1.50;;
76115;SDS011;64847;45.778;12.802;2023-08-01T10:51:13;1.80;;;1.77;;
76115;SDS011;64847;45.778;12.802;2023-08-01T10:53:39;2.00;;;1.90;;
76115;SDS011;64847;45.778;12.802;2023-08-01T10:56:04;1.80;;;1.70;;
76115;SDS011;64847;45.778;12.802;2023-08-01T10:58:30;1.52;;;1.52;;
76115;SDS011;64847;45.778;12.802;2023-08-01T11:00:58;1.75;;;1.65;;
76115;SDS011;64847;45.778;12.802;2023-08-01T11:03:37;1.60;;;1.60;;
76115;SDS011;64847;45.778;12.802;2023-08-01T11:06:03;1.80;;;1.77;;
76115;SDS011;64847;45.778;12.802;2023-08-01T11:08:36;1.58;;;1.58;;
76115;SDS011;64847;45.778;12.802;2023-08-01T11:11:05;1.95;;;1.85;;
76115;SDS011;64847;45.778;12.802;2023-08-01T11:13:32;2.00;;;1.80;;
76115;SDS011;64847;45.778;12.802;2023-08-01T11:16:00;1.90;;;1.80;;
76115;SDS011;64847;45.778;12.802;2023-08-01T11:18:27;1.90;;;1.80;;
76115;SDS011;64847;45.778;12.802;2023-08-01T11:20:53;2.10;;;2.00;;
76115;SDS011;64847;45.778;12.802;2023-08-01T11:23:18;2.08;;;1.92;;
76115;SDS011;64847;45.778;12.802;2023-08-01T11:25:44;1.90;;;1.80;;
76115;SDS011;64847;45.778;12.802;2023-08-01T11:28:11;2.08;;;1.90;;
76115;SDS011;64847;45.778;12.802;2023-08-01T11:30:39;1.98;;;1.88;;
76115;SDS011;64847;45.778;12.802;2023-08-01T11:33:18;2.10;;;2.00;;
76115;SDS011;64847;45.778;12.802;2023-08-01T11:35:52;1.90;;;1.80;;
76115;SDS011;64847;45.778;12.802;2023-08-01T11:38:21;1.80;;;1.80;;
76115;SDS011;64847;45.778;12.802;2023-08-01T11:40:47;1.92;;;1.85;;
76115;SDS011;64847;45.778;12.802;2023-08-01T11:43:14;2.05;;;1.95;;
76115;SDS011;64847;45.778;12.802;2023-08-01T11:45:53;1.77;;;1.70;;
76115;SDS011;64847;45.778;12.802;2023-08-01T11:48:21;2.40;;;1.70;;
76115;SDS011;64847;45.778;12.802;2023-08-01T11:50:48;2.20;;;1.98;;
76115;SDS011;64847;45.778;12.802;2023-08-01T11:53:22;1.80;;;1.70;;
76115;SDS011;64847;45.778;12.802;2023-08-01T11:55:48;1.85;;;1.80;;
76115;SDS011;64847;45.778;12.802;2023-08-01T11:58:27;2.30;;;2.10;;
76115;SDS011;64847;45.778;12.802;2023-08-01T12:01:01;2.05;;;2.00;;
76115;SDS011;64847;45.778;12.802;2023-08-01T12:03:50;2.15;;;2.05;;
76115;SDS011;64847;45.778;12.802;2023-08-01T12:06:16;2.08;;;1.98;;
76115;SDS011;64847;45.778;12.802;2023-08-01T12:08:43;1.90;;;1.80;;
76115;SDS011;64847;45.778;12.802;2023-08-01T12:16:29;1.70;;;1.70;;
76115;SDS011;64847;45.778;12.802;2023-08-01T12:18:54;1.98;;;1.85;;
76115;SDS011;64847;45.778;12.802;2023-08-01T12:21:20;1.80;;;1.73;;
76115;SDS011;64847;45.778;12.802;2023-08-01T12:23:47;1.67;;;1.63;;
76115;SDS011;64847;45.778;12.802;2023-08-01T12:26:12;1.90;;;1.88;;
76115;SDS011;64847;45.778;12.802;2023-08-01T12:28:38;2.17;;;2.08;;
76115;SDS011;64847;45.778;12.802;2023-08-01T12:31:03;2.00;;;1.90;;
76115;SDS011;64847;45.778;12.802;2023-08-01T12:33:29;1.70;;;1.70;;
76115;SDS011;64847;45.778;12.802;2023-08-01T12:35:55;1.63;;;1.63;;
76115;SDS011;64847;45.778;12.802;2023-08-01T12:38:20;2.05;;;1.95;;
76115;SDS011;64847;45.778;12.802;2023-08-01T12:40:45;1.83;;;1.83;;
76115;SDS011;64847;45.778;12.802;2023-08-01T12:43:12;1.80;;;1.80;;
76115;SDS011;64847;45.778;12.802;2023-08-01T12:45:37;2.00;;;1.90;;
76115;SDS011;64847;45.778;12.802;2023-08-01T12:48:03;1.70;;;1.70;;
76115;SDS011;64847;45.778;12.802;2023-08-01T12:50:28;2.10;;;2.00;;
76115;SDS011;64847;45.778;12.802;2023-08-01T12:52:54;2.20;;;2.10;;
76115;SDS011;64847;45.778;12.802;2023-08-01T12:55:19;2.28;;;2.17;;
76115;SDS011;64847;45.778;12.802;2023-08-01T12:57:45;2.03;;;1.92;;
76115;SDS011;64847;45.778;12.802;2023-08-01T13:00:10;2.00;;;1.90;;
76115;SDS011;64847;45.778;12.802;2023-08-01T13:02:36;1.73;;;1.67;;
76115;SDS011;64847;45.778;12.802;2023-08-01T13:05:02;1.90;;;1.90;;
76115;SDS011;64847;45.778;12.802;2023-08-01T13:07:29;2.30;;;2.10;;
76115;SDS011;64847;45.778;12.802;2023-08-01T13:09:57;1.77;;;1.77;;
76115;SDS011;64847;45.778;12.802;2023-08-01T13:12:23;2.03;;;2.03;;
76115;SDS011;64847;45.778;12.802;2023-08-01T13:14:48;1.85;;;1.75;;
76115;SDS011;64847;45.778;12.802;2023-08-01T13:17:14;2.08;;;1.98;;
76115;SDS011;64847;45.778;12.802;2023-08-01T13:22:42;1.77;;;1.77;;
76115;SDS011;64847;45.778;12.802;2023-08-01T13:25:08;2.13;;;2.03;;
76115;SDS011;64847;45.778;12.802;2023-08-01T13:27:34;1.90;;;1.80;;
76115;SDS011;64847;45.778;12.802;2023-08-01T13:30:00;2.17;;;2.08;;
76115;SDS011;64847;45.778;12.802;2023-08-01T13:32:26;2.50;;;2.30;;
76115;SDS011;64847;45.778;12.802;2023-08-01T13:34:51;1.98;;;1.88;;
76115;SDS011;64847;45.778;12.802;2023-08-01T13:37:17;2.10;;;2.00;;
76115;SDS011;64847;45.778;12.802;2023-08-01T13:39:42;2.00;;;1.90;;
76115;SDS011;64847;45.778;12.802;2023-08-01T13:42:08;2.20;;;2.10;;
76115;SDS011;64847;45.778;12.802;2023-08-01T13:44:33;2.00;;;1.90;;
76115;SDS011;64847;45.778;12.802;2023-08-01T13:46:59;2.17;;;2.08;;
76115;SDS011;64847;45.778;12.802;2023-08-01T13:49:25;2.38;;;1.80;;
76115;SDS011;64847;45.778;12.802;2023-08-01T13:51:50;2.10;;;2.00;;
76115;SDS011;64847;45.778;12.802;2023-08-01T13:54:15;1.98;;;1.90;;
76115;SDS011;64847;45.778;12.802;2023-08-01T13:56:41;1.73;;;1.73;;
76115;SDS011;64847;45.778;12.802;2023-08-01T13:59:06;2.20;;;2.00;;
76115;SDS011;64847;45.778;12.802;2023-08-01T14:01:32;2.08;;;1.88;;
76115;SDS011;64847;45.778;12.802;2023-08-01T14:03:58;1.95;;;1.95;;
76115;SDS011;64847;45.778;12.802;2023-08-01T14:06:23;2.00;;;1.85;;
76115;SDS011;64847;45.778;12.802;2023-08-01T14:08:49;1.90;;;1.80;;
76115;SDS011;64847;45.778;12.802;2023-08-01T14:11:14;2.20;;;2.10;;
76115;SDS011;64847;45.778;12.802;2023-08-01T14:13:39;2.20;;;2.10;;
76115;SDS011;64847;45.778;12.802;2023-08-01T14:16:05;1.90;;;1.80;;
76115;SDS011;64847;45.778;12.802;2023-08-01T14:18:30;1.83;;;1.80;;
76115;SDS011;64847;45.778;12.802;2023-08-01T14:20:56;1.88;;;1.77;;
76115;SDS011;64847;45.778;12.802;2023-08-01T14:23:21;2.15;;;2.05;;
76115;SDS011;64847;45.778;12.802;2023-08-01T14:25:47;2.10;;;2.00;;
76115;SDS011;64847;45.778;12.802;2023-08-01T14:28:12;2.08;;;1.98;;
76115;SDS011;64847;45.778;12.802;2023-08-01T14:30:38;1.90;;;1.80;;
76115;SDS011;64847;45.778;12.802;2023-08-01T14:33:05;2.05;;;2.05;;
76115;SDS011;64847;45.778;12.802;2023-08-01T14:35:32;1.83;;;1.73;;
76115;SDS011;64847;45.778;12.802;2023-08-01T14:37:58;2.25;;;2.10;;